createdAt,value
2023-05-25T06:21:50.859Z,1017.12
2023-05-25T06:31:50.984Z,1017.22
2023-05-25T06:41:50.814Z,1017.37
2023-05-25T06:51:50.745Z,1017.44
2023-05-25T07:01:50.763Z,1017.62
2023-05-25T07:11:50.796Z,1017.86
2023-05-25T07:21:50.922Z,1017.97
2023-05-25T07:31:51.020Z,1018.33
2023-05-25T07:41:50.849Z,1018.64
2023-05-25T07:51:51.010Z,1018.89
2023-05-25T08:01:50.867Z,1019.36
2023-05-25T08:11:50.943Z,1019.50
2023-05-25T08:21:50.908Z,1019.59
2023-05-25T08:31:50.899Z,1019.82
2023-05-25T08:41:51.106Z,1019.83
2023-05-25T08:51:51.052Z,1019.81
2023-05-25T09:01:51.117Z,1019.92
2023-05-25T09:11:51.051Z,1019.94
2023-05-25T09:21:53.083Z,1019.99
2023-05-25T09:31:51.202Z,1019.96
2023-05-25T09:41:51.032Z,1020.10
2023-05-25T09:51:51.053Z,1020.14
2023-05-25T10:01:51.136Z,1020.22
2023-05-25T10:11:51.233Z,1020.29
2023-05-25T10:21:51.194Z,1020.28
2023-05-25T10:31:50.940Z,1020.28
2023-05-25T10:41:51.028Z,1020.28
2023-05-25T10:51:51.188Z,1020.31
2023-05-25T11:01:51.251Z,1020.42
2023-05-25T11:11:51.015Z,1020.29
2023-05-25T11:21:51.059Z,1020.33
2023-05-25T11:31:51.184Z,1020.19
2023-05-25T11:41:51.127Z,1020.11
2023-05-25T11:51:51.062Z,1020.09
2023-05-25T12:01:51.112Z,1020.06
2023-05-25T12:11:50.998Z,1020.07
2023-05-25T12:21:51.001Z,1019.75
2023-05-25T12:31:51.141Z,1019.65
2023-05-25T12:41:54.060Z,1019.51
2023-05-25T12:51:51.130Z,1019.59
2023-05-25T13:01:51.257Z,1019.51
2023-05-25T13:11:51.287Z,1019.57
2023-05-25T13:21:51.029Z,1019.43
2023-05-25T13:31:51.441Z,1019.32
2023-05-25T13:41:50.952Z,1019.34
2023-05-25T13:51:51.265Z,1019.29
2023-05-25T14:01:52.184Z,1019.05
2023-05-25T14:11:51.044Z,1019.01
2023-05-25T14:22:03.854Z,1018.83
2023-05-25T14:31:51.174Z,1018.89
2023-05-25T14:41:51.163Z,1018.73
2023-05-25T14:51:51.129Z,1018.81
2023-05-25T15:01:52.992Z,1018.77
2023-05-25T15:11:51.286Z,1018.82
2023-05-25T15:21:51.148Z,1018.80
2023-05-25T15:31:51.429Z,1018.57
2023-05-25T15:41:51.313Z,1018.56
2023-05-25T15:51:51.458Z,1018.55
2023-05-25T16:01:51.455Z,1018.46
2023-05-25T16:11:51.304Z,1018.49
2023-05-25T16:21:51.453Z,1018.57
2023-05-25T16:31:51.438Z,1018.55
2023-05-25T16:41:51.429Z,1018.48
2023-05-25T16:51:51.535Z,1018.53
2023-05-25T17:01:51.574Z,1018.42
2023-05-25T17:11:53.686Z,1018.47
2023-05-25T17:21:51.619Z,1018.56
2023-05-25T17:31:51.880Z,1018.49
2023-05-25T17:41:51.969Z,1018.48
2023-05-25T17:51:51.719Z,1018.53
2023-05-25T18:01:51.652Z,1018.61
2023-05-25T18:11:53.599Z,1018.52
2023-05-25T18:21:51.681Z,1018.56
2023-05-25T18:31:51.872Z,1018.61
2023-05-25T18:41:51.690Z,1018.80
2023-05-25T18:51:51.695Z,1018.81
2023-05-25T19:01:51.837Z,1018.92
2023-05-25T19:11:51.739Z,1019.13
2023-05-25T19:21:51.807Z,1019.14
